Time;durP1;ratioP1;P1;durP2;ratioP2;P2;SDS_P1;SDS_P2;PMS_P1;PMS_P2;Temp;Humidity;BMP_temperature;BMP_pressure;BME280_temperature;BME280_humidity;BME280_pressure;Samples;Min_cycle;Max_cycle;Signal;HPM_P1;HPM_P2
2024/01/25 00:02:06;;;;;;;7.35;4.03;;;;;;;20.89;53.96;99177.81;5008935;28;20097;-54
2024/01/25 00:04:33;;;;;;;9.85;4.50;;;;;;;20.88;53.74;99179.59;5008247;28;20050;-54
2024/01/25 00:06:59;;;;;;;6.47;4.10;;;;;;;20.88;53.80;99171.66;5008847;28;20515;-54
2024/01/25 00:09:28;;;;;;;8.40;4.72;;;;;;;20.87;53.82;99180.53;5008557;28;20050;-54
2024/01/25 00:11:55;;;;;;;9.30;4.47;;;;;;;20.87;53.67;99180.53;5008948;28;20050;-54
2024/01/25 00:14:22;;;;;;;8.77;4.82;;;;;;;20.86;53.87;99168.22;5008607;28;20496;-54
2024/01/25 00:16:49;;;;;;;7.75;4.20;;;;;;;20.87;53.63;99174.38;5008376;28;20050;-55
2024/01/25 00:19:16;;;;;;;8.05;4.35;;;;;;;20.87;53.79;99174.38;5008915;28;20128;-55
2024/01/25 00:21:43;;;;;;;9.30;4.18;;;;;;;20.86;53.73;99173.53;5008852;28;20048;-54
2024/01/25 00:24:11;;;;;;;8.10;4.43;;;;;;;20.86;53.73;99149.69;5008495;28;20061;-54
2024/01/25 00:26:39;;;;;;;8.02;4.30;;;;;;;20.86;53.90;99160.28;5009149;28;20056;-55
2024/01/25 00:29:06;;;;;;;9.57;4.70;;;;;;;20.85;53.77;99163.84;5008511;28;20073;-54
2024/01/25 00:31:33;;;;;;;8.20;4.28;;;;;;;20.85;53.96;99166.50;5008386;28;20504;-54
2024/01/25 00:34:00;;;;;;;8.88;4.50;;;;;;;20.85;53.76;99169.16;5008816;28;20046;-54
2024/01/25 00:36:27;;;;;;;8.40;4.63;;;;;;;20.84;53.77;99165.66;5008464;28;20481;-54
2024/01/25 00:38:54;;;;;;;7.88;4.78;;;;;;;20.84;53.93;99175.41;5008268;28;20052;-54
2024/01/25 00:41:21;;;;;;;8.13;4.22;;;;;;;20.84;53.68;99186.00;5007623;28;20456;-54
2024/01/25 00:43:51;;;;;;;7.85;4.25;;;;;;;20.84;53.78;99186.84;5033729;28;20052;-54
2024/01/25 00:46:18;;;;;;;7.85;4.30;;;;;;;20.84;53.82;99186.00;5008434;28;20046;-54
2024/01/25 00:48:45;;;;;;;7.88;4.40;;;;;;;20.84;53.80;99193.94;5008639;28;20121;-54
2024/01/25 00:51:15;;;;;;;7.78;4.40;;;;;;;20.83;53.59;99153.34;5008045;28;20133;-55
2024/01/25 00:53:42;;;;;;;7.30;4.32;;;;;;;20.82;53.77;99133.09;5008298;28;20128;-55
2024/01/25 00:56:11;;;;;;;7.90;4.35;;;;;;;20.83;53.88;99153.34;5008451;28;20474;-54
2024/01/25 00:58:38;;;;;;;8.85;4.65;;;;;;;20.83;53.78;99131.31;5008655;28;20054;-54
2024/01/25 01:01:07;;;;;;;7.85;4.30;;;;;;;20.82;53.72;99122.50;5008377;28;20046;-55
2024/01/25 01:03:34;;;;;;;7.78;4.20;;;;;;;20.82;53.76;99141.03;5007720;28;20149;-54
2024/01/25 01:06:01;;;;;;;7.18;4.32;;;;;;;20.82;53.78;99135.75;5008588;28;20129;-55
2024/01/25 01:08:29;;;;;;;8.10;4.30;;;;;;;20.82;53.82;99129.56;5007574;28;20129;-55
2024/01/25 01:10:56;;;;;;;7.43;4.28;;;;;;;20.83;53.99;99133.94;5007597;28;20511;-55
2024/01/25 01:13:22;;;;;;;7.00;4.15;;;;;;;20.83;53.76;99152.47;5008143;28;20120;-55
2024/01/25 01:15:49;;;;;;;8.13;4.45;;;;;;;20.82;53.70;99158.69;5008110;28;20480;-54
2024/01/25 01:18:17;;;;;;;8.10;4.10;;;;;;;20.83;53.72;99185.09;5008256;28;20054;-55
2024/01/25 01:20:44;;;;;;;7.57;4.35;;;;;;;20.83;53.75;99176.31;5007967;28;20046;-54
2024/01/25 01:23:10;;;;;;;8.30;4.47;;;;;;;20.83;53.79;99184.25;5007818;28;20508;-54
2024/01/25 01:25:37;;;;;;;7.15;3.95;;;;;;;20.83;53.74;99186.91;5007389;28;20674;-55
2024/01/25 01:28:04;;;;;;;8.70;4.10;;;;;;;20.82;53.76;99170.16;5006431;28;20149;-55
2024/01/25 01:30:31;;;;;;;8.48;4.32;;;;;;;20.82;53.77;99150.75;5011657;28;20136;-54
2024/01/25 01:32:57;;;;;;;7.45;4.10;;;;;;;20.82;53.88;99177.22;5011597;28;20407;-54
2024/01/25 01:35:26;;;;;;;6.75;4.05;;;;;;;20.82;53.77;99185.19;5011297;28;20129;-55
2024/01/25 01:37:52;;;;;;;8.48;4.70;;;;;;;20.82;53.69;99179.88;5011112;28;20046;-54
2024/01/25 01:40:19;;;;;;;7.80;4.30;;;;;;;20.82;53.87;99166.63;5010888;28;20522;-54
2024/01/25 01:42:46;;;;;;;7.78;4.10;;;;;;;20.82;53.75;99169.28;5010573;28;20057;-55
2024/01/25 01:45:12;;;;;;;6.97;4.10;;;;;;;20.81;53.76;99139.31;5011181;28;20085;-55
2024/01/25 01:47:39;;;;;;;7.78;4.13;;;;;;;20.80;53.78;99149.97;5011112;28;20125;-54
2024/01/25 01:50:07;;;;;;;7.43;4.40;;;;;;;20.80;53.64;99136.72;5012832;28;20046;-55
2024/01/25 01:52:35;;;;;;;8.13;4.45;;;;;;;20.80;53.77;99129.69;5010554;28;20073;-55
2024/01/25 01:55:02;;;;;;;8.27;4.18;;;;;;;20.80;53.68;99132.31;5010705;28;20042;-55
2024/01/25 01:57:28;;;;;;;7.43;4.30;;;;;;;20.79;53.79;99140.34;5010805;28;20050;-55
2024/01/25 01:59:55;;;;;;;7.55;4.30;;;;;;;20.79;53.66;99127.09;5010812;28;20122;-55
2024/01/25 02:02:23;;;;;;;7.32;4.30;;;;;;;20.79;53.70;99127.94;5010677;28;20677;-55
2024/01/25 02:04:52;;;;;;;7.75;4.65;;;;;;;20.79;53.63;99121.81;5010874;28;20050;-55
2024/01/25 02:07:19;;;;;;;7.85;4.20;;;;;;;20.79;53.71;99097.97;5010362;28;20521;-55
2024/01/25 02:09:47;;;;;;;8.07;4.50;;;;;;;20.78;53.54;99114.78;5010445;28;20559;-55
2024/01/25 02:12:16;;;;;;;7.25;4.18;;;;;;;20.78;53.73;99131.53;5010677;28;20128;-55
2024/01/25 02:14:43;;;;;;;7.50;4.18;;;;;;;20.78;53.77;99128.91;5010032;28;20046;-55
2024/01/25 02:17:10;;;;;;;9.50;4.10;;;;;;;20.78;53.63;99125.38;5002651;28;20576;-55
2024/01/25 02:19:37;;;;;;;7.63;4.47;;;;;;;20.78;53.65;99125.38;5010536;28;20563;-55
2024/01/25 02:22:05;;;;;;;7.05;4.07;;;;;;;20.77;53.70;99116.56;5009992;28;20130;-55
2024/01/25 02:24:34;;;;;;;7.60;4.25;;;;;;;20.78;53.57;99125.38;5010437;28;20064;-55
2024/01/25 02:27:00;;;;;;;7.60;3.88;;;;;;;20.77;53.50;99121.03;5010003;28;20061;-55
2024/01/25 02:29:27;;;;;;;7.28;4.25;;;;;;;20.78;53.66;99120.06;5010130;28;20050;-55
2024/01/25 02:31:54;;;;;;;7.28;4.20;;;;;;;20.77;53.68;99126.31;5009663;28;20048;-55
2024/01/25 02:34:21;;;;;;;7.60;4.00;;;;;;;20.77;53.74;99123.66;5010025;28;20527;-55
2024/01/25 02:36:48;;;;;;;7.72;4.45;;;;;;;20.76;53.67;99120.19;5010059;28;20050;-55
2024/01/25 02:39:15;;;;;;;7.57;4.22;;;;;;;20.76;53.70;99124.59;5009995;28;20615;-55
2024/01/25 02:41:43;;;;;;;7.30;4.32;;;;;;;20.76;53.52;99135.19;5009833;28;20052;-55
2024/01/25 02:44:09;;;;;;;6.45;3.80;;;;;;;20.75;53.52;99113.16;5002076;28;20661;-55
2024/01/25 02:46:36;;;;;;;6.85;3.78;;;;;;;20.76;53.51;99114.00;5009314;28;20439;-55
2024/01/25 02:49:03;;;;;;;6.90;3.88;;;;;;;20.75;53.52;99097.25;5009657;28;20586;-55
2024/01/25 02:51:30;;;;;;;7.07;4.10;;;;;;;20.74;53.53;99087.59;5010064;28;20444;-54
2024/01/25 02:53:57;;;;;;;7.53;4.13;;;;;;;20.76;53.61;99095.47;5009810;28;20405;-55
2024/01/25 02:56:23;;;;;;;7.63;4.40;;;;;;;20.74;53.61;99092.88;5010037;28;20052;-55
2024/01/25 02:58:52;;;;;;;8.60;4.25;;;;;;;20.74;53.55;99098.19;5009983;28;20531;-55
2024/01/25 03:01:18;;;;;;;7.82;4.15;;;;;;;20.75;53.63;99101.72;5009762;28;20049;-55
2024/01/25 03:03:45;;;;;;;7.80;4.38;;;;;;;20.74;53.69;99090.25;5009579;28;20571;-55
2024/01/25 03:06:12;;;;;;;7.63;4.20;;;;;;;20.73;53.48;99093.84;5009733;28;20575;-55
2024/01/25 03:08:38;;;;;;;7.38;3.97;;;;;;;20.74;53.59;99089.38;5009649;28;20056;-55
2024/01/25 03:11:05;;;;;;;6.10;3.80;;;;;;;20.74;53.62;99089.38;5009518;28;20484;-55
2024/01/25 03:13:52;;;;;;;7.40;3.92;;;;;;;20.74;53.68;99074.34;5009328;28;20585;-55
2024/01/25 03:16:19;;;;;;;7.93;4.05;;;;;;;20.73;53.54;99080.59;5009875;28;20064;-55
2024/01/25 03:18:46;;;;;;;6.68;3.78;;;;;;;20.73;53.56;99093.00;5009212;28;20132;-55
2024/01/25 03:21:12;;;;;;;7.07;3.97;;;;;;;20.74;53.50;99089.38;5009341;28;20073;-55
2024/01/25 03:23:39;;;;;;;6.80;4.05;;;;;;;20.73;53.57;99072.66;5009390;28;20124;-55
2024/01/25 03:26:06;;;;;;;7.13;3.88;;;;;;;20.73;53.67;99088.53;5009548;28;20056;-55
2024/01/25 03:28:34;;;;;;;7.13;3.80;;;;;;;20.73;53.48;99082.41;5009494;28;20046;-55
2024/01/25 03:31:02;;;;;;;6.75;3.90;;;;;;;20.73;53.60;99087.69;5009436;28;20121;-55
2024/01/25 03:33:29;;;;;;;7.15;3.90;;;;;;;20.73;53.57;99101.78;5009495;28;20069;-55
2024/01/25 03:35:56;;;;;;;6.70;3.85;;;;;;;20.73;53.60;99104.44;5009148;28;20504;-55
2024/01/25 03:38:23;;;;;;;8.57;3.97;;;;;;;20.73;53.45;99103.59;5009212;28;20052;-55
2024/01/25 03:40:50;;;;;;;7.28;4.20;;;;;;;20.73;53.50;99098.28;5009240;28;20145;-55
2024/01/25 03:43:17;;;;;;;6.90;3.75;;;;;;;20.73;53.58;99116.81;5008970;28;20054;-55
2024/01/25 03:45:44;;;;;;;6.93;3.97;;;;;;;20.73;53.58;99104.44;4998355;28;20497;-55
2024/01/25 03:48:12;;;;;;;7.30;4.10;;;;;;;20.73;53.45;99107.06;5009238;28;20041;-55
2024/01/25 03:50:38;;;;;;;8.05;3.80;;;;;;;20.73;53.66;99114.16;5008443;28;20102;-55
2024/01/25 03:53:06;;;;;;;7.93;4.00;;;;;;;20.72;53.60;99108.00;5008725;28;20054;-55
2024/01/25 03:55:33;;;;;;;6.90;4.10;;;;;;;20.73;53.48;99132.69;5008643;28;20054;-55
2024/01/25 03:58:00;;;;;;;6.95;3.78;;;;;;;20.72;53.51;99130.97;5008579;28;20510;-55
2024/01/25 04:00:26;;;;;;;7.30;3.90;;;;;;;20.72;53.61;99107.16;5008893;28;20486;-55
2024/01/25 04:02:53;;;;;;;6.88;4.00;;;;;;;20.71;53.56;99089.56;5008993;28;20504;-55
2024/01/25 04:05:21;;;;;;;6.47;4.00;;;;;;;20.71;53.61;99116.03;5008525;28;20056;-55
2024/01/25 04:07:49;;;;;;;6.80;4.00;;;;;;;20.72;53.56;99123.88;5009064;28;20141;-55
2024/01/25 04:10:15;;;;;;;8.05;4.07;;;;;;;20.71;53.52;99116.03;5008457;28;20465;-55
2024/01/25 04:12:43;;;;;;;7.60;4.03;;;;;;;20.73;53.60;99116.81;5008592;28;20129;-55
2024/01/25 04:15:10;;;;;;;6.80;3.88;;;;;;;20.72;53.57;99115.09;5008502;28;20576;-55
2024/01/25 04:17:37;;;;;;;7.07;4.03;;;;;;;20.71;53.47;99103.66;5008801;28;20137;-55
2024/01/25 04:20:04;;;;;;;7.07;3.90;;;;;;;20.72;53.48;99123.88;5008408;28;20488;-55
2024/01/25 04:22:32;;;;;;;6.22;3.72;;;;;;;20.71;53.49;99116.03;5007890;28;20038;-55
2024/01/25 04:24:59;;;;;;;7.80;3.90;;;;;;;20.72;53.52;99112.44;5000451;28;20062;-55
2024/01/25 04:27:26;;;;;;;6.43;3.58;;;;;;;20.72;53.59;99104.50;5008451;28;20560;-55
2024/01/25 04:29:53;;;;;;;6.43;3.58;;;;;;;20.71;53.45;99101.00;5008214;28;20484;-55
2024/01/25 04:32:19;;;;;;;6.68;3.70;;;;;;;20.72;53.39;99096.56;5008482;28;20042;-55
2024/01/25 04:34:47;;;;;;;7.88;3.63;;;;;;;20.71;53.52;99103.66;5008970;28;20046;-55
2024/01/25 04:37:14;;;;;;;7.15;3.95;;;;;;;20.71;53.53;99101.00;5008103;28;20436;-55
2024/01/25 04:39:42;;;;;;;6.78;3.90;;;;;;;20.72;53.45;99112.44;5008596;28;20468;-55
2024/01/25 04:42:09;;;;;;;6.78;3.90;;;;;;;20.70;53.41;99086.03;5001851;28;20047;-55
2024/01/25 04:44:36;;;;;;;7.50;3.97;;;;;;;20.71;53.67;99105.44;5008107;28;20042;-55
2024/01/25 04:47:02;;;;;;;6.95;4.00;;;;;;;20.70;53.95;99098.44;5001955;28;20578;-55
2024/01/25 04:49:29;;;;;;;6.80;3.80;;;;;;;20.70;53.56;99086.03;5008347;28;20049;-55
2024/01/25 04:51:56;;;;;;;7.05;3.70;;;;;;;20.71;53.63;99087.75;5007893;28;20042;-55
2024/01/25 04:54:23;;;;;;;7.32;3.75;;;;;;;20.71;53.55;99071.03;5007548;28;20057;-55
2024/01/25 04:56:51;;;;;;;7.97;4.00;;;;;;;20.72;53.61;99088.63;5008120;28;20115;-56
2024/01/25 04:59:17;;;;;;;6.55;3.75;;;;;;;20.71;53.55;99074.53;5008561;28;20129;-55
2024/01/25 05:01:44;;;;;;;6.15;3.55;;;;;;;20.72;53.60;99084.16;5008367;28;20137;-55
2024/01/25 05:04:11;;;;;;;8.13;3.80;;;;;;;20.73;53.62;99083.25;5010066;28;20060;-55
2024/01/25 05:06:37;;;;;;;6.88;3.60;;;;;;;20.74;53.64;99069.06;5011726;28;20571;-55
2024/01/25 05:09:04;;;;;;;8.05;3.88;;;;;;;20.75;53.65;99081.38;5011586;28;20140;-55
2024/01/25 05:11:30;;;;;;;6.90;3.70;;;;;;;20.76;53.52;99080.47;5011816;28;20068;-55
2024/01/25 05:13:59;;;;;;;6.93;3.75;;;;;;;20.78;53.62;99075.06;5011925;28;20050;-55
2024/01/25 05:16:25;;;;;;;7.57;4.07;;;;;;;20.79;53.65;99082.09;5011122;28;20046;-55
2024/01/25 05:18:52;;;;;;;8.05;4.15;;;;;;;20.80;53.56;99073.19;5015063;28;20044;-55
2024/01/25 05:21:19;;;;;;;6.43;3.70;;;;;;;20.80;53.62;99078.50;5003360;28;20145;-56
2024/01/25 05:23:45;;;;;;;7.10;3.80;;;;;;;20.81;53.77;99085.50;4994270;28;20484;-55
2024/01/25 05:26:12;;;;;;;7.78;4.20;;;;;;;20.82;53.57;99081.91;4999941;28;20141;-55
2024/01/25 05:28:37;;;;;;;6.90;3.90;;;;;;;20.82;53.61;99066.03;5002230;28;20150;-54
2024/01/25 05:31:09;;;;;;;7.70;4.00;;;;;;;20.83;53.62;99062.47;5001210;28;20478;-55
2024/01/25 05:33:36;;;;;;;7.32;3.90;;;;;;;20.83;53.61;99079.19;5002186;28;20050;-54
2024/01/25 05:36:02;;;;;;;6.50;3.70;;;;;;;20.85;53.63;99087.06;5001224;28;20046;-54
2024/01/25 05:38:29;;;;;;;7.15;3.67;;;;;;;20.85;53.42;99077.31;5002756;28;20475;-53
2024/01/25 05:40:56;;;;;;;6.65;3.80;;;;;;;20.85;53.64;99085.25;5000376;28;20591;-55
2024/01/25 05:43:22;;;;;;;7.50;4.00;;;;;;;20.86;53.60;99078.19;4999822;28;20125;-54
2024/01/25 05:45:49;;;;;;;7.10;3.70;;;;;;;20.87;53.52;99102.88;5001538;28;20056;-54
2024/01/25 05:48:17;;;;;;;6.63;3.90;;;;;;;20.88;53.55;99101.94;5001633;28;20057;-54
2024/01/25 05:50:44;;;;;;;8.15;3.95;;;;;;;20.88;53.90;99100.16;5022204;28;20042;-56
2024/01/25 05:53:10;;;;;;;7.05;3.90;;;;;;;20.89;53.70;99109.81;5031434;28;20076;-56
2024/01/25 05:55:37;;;;;;;20.50;4.40;;;;;;;20.88;53.90;99108.09;5027657;28;20124;-55
2024/01/25 05:58:04;;;;;;;12.10;3.78;;;;;;;20.88;53.73;99113.41;5006643;28;20129;-56
2024/01/25 06:00:31;;;;;;;12.45;3.97;;;;;;;20.87;53.82;99106.38;4991218;28;20560;-55
2024/01/25 06:02:58;;;;;;;12.65;3.72;;;;;;;20.87;53.87;99111.69;4991644;28;20571;-55
2024/01/25 06:05:26;;;;;;;12.05;3.80;;;;;;;20.87;53.72;99119.63;4991540;28;20060;-55
2024/01/25 06:07:53;;;;;;;8.57;4.00;;;;;;;20.87;53.76;99106.38;4991450;28;20054;-55
2024/01/25 06:10:20;;;;;;;13.18;4.22;;;;;;;20.89;53.95;99091.28;4991442;28;20495;-55
2024/01/25 06:12:46;;;;;;;8.77;4.07;;;;;;;20.89;54.04;99103.66;4991729;28;20149;-55
2024/01/25 06:15:13;;;;;;;9.00;4.32;;;;;;;20.89;54.10;99115.09;5006734;28;20564;-54
2024/01/25 06:17:40;;;;;;;13.48;5.10;;;;;;;20.80;54.27;99089.97;5010597;28;20543;-55
2024/01/25 06:20:07;;;;;;;18.85;5.63;;;;;;;20.85;53.97;99106.44;4991540;28;20591;-55
2024/01/25 06:22:35;;;;;;;18.23;6.18;;;;;;;20.89;53.91;99130.13;4991089;28;20046;-55
2024/01/25 06:25:03;;;;;;;29.30;9.45;;;;;;;20.89;53.90;99108.97;4991303;28;20092;-55
2024/01/25 06:27:30;;;;;;;35.63;11.02;;;;;;;20.89;53.93;99085.97;4991267;28;20137;-55
2024/01/25 06:29:56;;;;;;;45.35;11.88;;;;;;;20.89;54.03;99083.31;4991334;28;20418;-54
2024/01/25 06:32:23;;;;;;;47.25;13.73;;;;;;;20.91;53.91;99096.50;4991457;28;20492;-55
2024/01/25 06:34:50;;;;;;;48.55;14.63;;;;;;;20.90;54.00;99090.34;4991041;28;20053;-55
2024/01/25 06:37:18;;;;;;;47.80;15.00;;;;;;;20.91;53.82;99086.75;4991267;28;20472;-54
2024/01/25 06:39:46;;;;;;;52.38;15.18;;;;;;;20.93;53.87;99099.91;4991269;28;20146;-54
2024/01/25 06:42:13;;;;;;;49.15;14.07;;;;;;;20.93;54.03;99100.75;4990864;28;20064;-55
2024/01/25 06:44:38;;;;;;;46.38;13.45;;;;;;;20.94;53.88;99089.25;4991190;28;20057;-54
2024/01/25 06:47:05;;;;;;;45.53;14.02;;;;;;;20.96;53.93;99102.41;4991088;28;20137;-55
2024/01/25 06:49:32;;;;;;;43.22;14.68;;;;;;;20.97;53.82;99117.38;4990937;28;20043;-54
2024/01/25 06:51:59;;;;;;;35.00;12.80;;;;;;;20.97;53.87;99102.31;4991129;28;20056;-54
2024/01/25 06:54:26;;;;;;;44.63;13.25;;;;;;;20.97;53.79;99107.63;4990822;28;20046;-55
2024/01/25 06:56:56;;;;;;;44.92;13.82;;;;;;;20.98;53.83;99100.56;4991058;28;20129;-55
2024/01/25 06:59:24;;;;;;;37.33;12.98;;;;;;;20.98;53.81;99082.00;4990904;28;20167;-55
2024/01/25 07:01:51;;;;;;;45.22;13.63;;;;;;;20.99;53.75;99104.91;4990852;28;20058;-55
2024/01/25 07:04:18;;;;;;;37.15;12.82;;;;;;;20.99;53.81;99089.00;4990753;28;20141;-55
2024/01/25 07:06:45;;;;;;;35.95;12.23;;;;;;;21.00;53.70;99099.53;4990634;28;20511;-55
2024/01/25 07:09:12;;;;;;;33.50;12.85;;;;;;;21.00;53.70;99078.34;4990400;28;20557;-55
2024/01/25 07:11:38;;;;;;;32.75;11.98;;;;;;;21.02;53.78;99089.72;4990693;28;20057;-54
2024/01/25 07:14:07;;;;;;;35.00;12.38;;;;;;;21.03;53.72;99099.38;4990652;28;20085;-55
2024/01/25 07:16:33;;;;;;;33.30;12.13;;;;;;;21.03;53.71;99088.78;4990532;28;20460;-55
2024/01/25 07:19:00;;;;;;;32.97;12.48;;;;;;;21.05;53.65;99070.16;4990310;28;20081;-54
2024/01/25 07:21:26;;;;;;;37.78;12.43;;;;;;;21.06;53.50;99082.47;4990358;28;20054;-54
2024/01/25 07:23:53;;;;;;;35.13;12.02;;;;;;;21.07;53.40;99068.28;4990075;28;20133;-55
2024/01/25 07:26:20;;;;;;;31.15;12.75;;;;;;;21.11;53.27;99075.16;4989493;28;20156;-54
2024/01/25 07:28:47;;;;;;;31.75;11.65;;;;;;;21.12;53.29;99094.53;4990329;28;20054;-54
2024/01/25 07:31:15;;;;;;;32.00;12.52;;;;;;;21.13;53.39;99101.53;4989918;28;20142;-54
2024/01/25 07:33:42;;;;;;;29.20;11.23;;;;;;;21.15;53.29;99094.38;4990429;28;20053;-55
2024/01/25 07:36:08;;;;;;;27.10;11.13;;;;;;;21.17;53.38;99087.19;4990039;28;20145;-54
2024/01/25 07:38:35;;;;;;;30.85;12.13;;;;;;;21.17;53.37;99098.66;4990428;28;20137;-54
2024/01/25 07:41:01;;;;;;;28.63;11.25;;;;;;;21.19;53.16;99106.50;4990273;28;20050;-55
2024/01/25 07:43:28;;;;;;;30.17;11.50;;;;;;;21.19;53.24;99101.22;4989873;28;20100;-54
2024/01/25 07:45:55;;;;;;;26.77;11.07;;;;;;;21.20;53.29;99098.50;4990100;28;20054;-55
2024/01/25 07:48:23;;;;;;;27.85;11.00;;;;;;;21.23;53.11;99090.41;4989904;28;20128;-55
2024/01/25 07:50:49;;;;;;;26.67;11.43;;;;;;;21.23;53.05;99084.25;4990145;28;20141;-54
2024/01/25 07:53:16;;;;;;;27.73;10.10;;;;;;;21.21;53.15;99105.53;4989791;28;20050;-54
2024/01/25 07:55:43;;;;;;;28.17;10.65;;;;;;;21.20;53.21;99103.78;4989930;28;20138;-54
2024/01/25 07:58:10;;;;;;;26.08;9.90;;;;;;;21.25;52.98;99098.28;4989907;28;20133;-54
2024/01/25 08:00:36;;;;;;;25.92;10.73;;;;;;;21.26;53.04;99097.31;4989864;28;20046;-54
2024/01/25 08:03:03;;;;;;;28.55;11.52;;;;;;;21.24;52.92;99097.38;4989572;28;20051;-54
2024/01/25 08:05:31;;;;;;;28.80;10.77;;;;;;;21.26;53.02;99086.72;4989308;28;20149;-54
2024/01/25 08:07:58;;;;;;;27.75;10.52;;;;;;;21.29;52.84;99102.47;4989828;28;20058;-55
2024/01/25 08:10:25;;;;;;;23.23;9.93;;;;;;;21.31;52.79;99084.69;4989438;28;20141;-54
2024/01/25 08:12:52;;;;;;;25.83;10.25;;;;;;;21.36;52.67;99079.16;4989655;28;20467;-54
2024/01/25 08:15:19;;;;;;;21.65;9.68;;;;;;;21.37;52.54;99071.13;4989709;28;20078;-55
2024/01/25 08:17:46;;;;;;;25.60;10.75;;;;;;;21.37;52.55;99073.78;4989615;28;20121;-55
2024/01/25 08:20:13;;;;;;;24.92;10.05;;;;;;;21.40;52.59;99084.22;4989747;28;20050;-56
2024/01/25 08:22:42;;;;;;;23.77;9.80;;;;;;;21.38;52.53;99075.50;4989500;28;20054;-55
2024/01/25 08:25:09;;;;;;;22.40;9.88;;;;;;;21.37;52.40;99071.13;4989414;28;20057;-55
2024/01/25 08:27:36;;;;;;;27.17;10.20;;;;;;;21.37;52.65;99079.06;4989485;28;20065;-54
2024/01/25 08:30:03;;;;;;;23.23;9.70;;;;;;;21.36;52.65;99087.94;4989494;28;20141;-55
2024/01/25 08:32:29;;;;;;;27.52;10.50;;;;;;;21.34;52.67;99073.91;4989124;28;20129;-55
2024/01/25 08:34:56;;;;;;;23.35;9.75;;;;;;;21.35;52.67;99074.81;4989333;28;20051;-55
2024/01/25 08:37:23;;;;;;;23.08;9.73;;;;;;;21.35;52.66;99074.81;4989086;28;20137;-54
2024/01/25 08:39:51;;;;;;;24.15;9.25;;;;;;;21.35;52.62;99099.50;4989010;28;20141;-54
2024/01/25 08:42:17;;;;;;;21.58;9.55;;;;;;;21.34;52.65;99075.72;4988924;28;20054;-55
2024/01/25 08:44:49;;;;;;;22.35;9.05;;;;;;;21.36;52.60;99076.50;4988963;28;20455;-54
2024/01/25 08:47:16;;;;;;;21.95;9.15;;;;;;;21.36;52.47;99082.63;4988779;28;20061;-55
2024/01/25 08:49:43;;;;;;;22.30;9.27;;;;;;;21.37;52.57;99076.41;4989211;28;20046;-54
2024/01/25 08:52:09;;;;;;;19.52;9.10;;;;;;;21.38;52.53;99080.78;4988886;28;20051;-54
2024/01/25 08:54:37;;;;;;;21.95;9.02;;;;;;;21.41;52.45;99083.25;4989081;28;20584;-54
2024/01/25 08:57:06;;;;;;;19.45;9.80;;;;;;;21.41;52.43;99080.63;4989155;28;20054;-54
2024/01/25 08:59:35;;;;;;;19.73;9.20;;;;;;;21.45;52.18;99080.50;4988665;28;20501;-54
2024/01/25 09:02:01;;;;;;;21.40;9.43;;;;;;;21.43;52.35;99080.53;4988893;28;20528;-54
2024/01/25 09:04:28;;;;;;;22.80;9.50;;;;;;;21.43;52.37;99093.78;4988835;28;20086;-54
2024/01/25 09:06:55;;;;;;;22.98;9.70;;;;;;;21.44;52.31;99090.22;4988549;28;20137;-55
2024/01/25 09:09:21;;;;;;;20.15;8.73;;;;;;;21.45;52.19;99091.94;4988711;28;20081;-56
2024/01/25 09:11:48;;;;;;;19.35;8.95;;;;;;;21.49;52.23;99097.94;4988535;28;20133;-54
2024/01/25 09:14:16;;;;;;;21.60;8.70;;;;;;;21.52;52.03;99096.00;4988663;28;20212;-54
2024/01/25 09:16:43;;;;;;;19.52;9.13;;;;;;;21.57;52.01;99091.28;4988900;28;20047;-54
2024/01/25 09:19:09;;;;;;;19.70;9.18;;;;;;;21.62;51.91;99093.72;4988931;28;20047;-54
2024/01/25 09:21:39;;;;;;;20.30;9.07;;;;;;;21.65;51.74;99101.47;4988611;28;20047;-55
2024/01/25 09:24:06;;;;;;;16.73;8.48;;;;;;;21.65;51.65;99098.81;4988471;28;20489;-55
2024/01/25 09:26:32;;;;;;;20.45;8.65;;;;;;;21.67;51.71;99112.00;4988628;28;20097;-54
2024/01/25 09:28:59;;;;;;;20.17;8.52;;;;;;;21.70;51.65;99106.56;4988580;28;20050;-55
2024/01/25 09:31:28;;;;;;;18.45;8.00;;;;;;;21.67;51.61;99115.50;4988708;28;20129;-54
2024/01/25 09:33:55;;;;;;;19.38;8.65;;;;;;;21.71;51.50;99103.78;4988838;28;20050;-55
2024/01/25 09:36:21;;;;;;;18.80;8.40;;;;;;;21.71;51.71;99118.84;4988394;28;20133;-54
2024/01/25 09:38:48;;;;;;;17.38;8.45;;;;;;;21.68;51.56;99101.31;4988921;28;20565;-54
2024/01/25 09:41:15;;;;;;;18.60;8.55;;;;;;;21.68;51.68;99105.78;4988179;28;20100;-54
2024/01/25 09:43:42;;;;;;;20.20;8.77;;;;;;;21.68;51.54;99109.28;4988778;28;20053;-55
2024/01/25 09:46:09;;;;;;;18.25;8.30;;;;;;;21.72;51.41;99108.16;4988170;28;20052;-54
2024/01/25 09:48:38;;;;;;;17.95;8.57;;;;;;;21.75;51.54;99105.38;4988778;28;20050;-55
2024/01/25 09:51:05;;;;;;;19.05;8.65;;;;;;;21.77;51.35;99116.75;4991406;28;20065;-55
2024/01/25 09:53:33;;;;;;;18.20;8.63;;;;;;;21.81;51.37;99098.88;4991461;28;20056;-55
2024/01/25 09:56:02;;;;;;;16.67;7.80;;;;;;;21.89;51.09;99090.47;4991342;28;20511;-55
2024/01/25 09:58:32;;;;;;;17.80;7.68;;;;;;;21.92;51.00;99095.63;4991419;28;20515;-54
2024/01/25 10:00:58;;;;;;;20.10;8.18;;;;;;;21.97;50.78;99106.84;4991512;28;20062;-55
2024/01/25 10:03:25;;;;;;;18.02;8.20;;;;;;;21.97;50.87;99078.50;4991373;28;20571;-55
2024/01/25 10:05:53;;;;;;;18.65;8.45;;;;;;;21.97;50.91;99096.22;4991287;28;20465;-54
2024/01/25 10:08:23;;;;;;;17.48;8.07;;;;;;;21.95;50.94;99106.91;4991367;28;20141;-54
2024/01/25 10:10:53;;;;;;;16.25;7.80;;;;;;;21.98;50.62;99077.59;4991094;28;20057;-54
2024/01/25 10:13:19;;;;;;;17.92;8.02;;;;;;;22.02;50.83;99080.91;4991479;28;20053;-54
2024/01/25 10:15:47;;;;;;;18.70;8.23;;;;;;;22.00;50.70;99081.00;4991078;28;20050;-54
2024/01/25 10:18:13;;;;;;;17.90;7.93;;;;;;;22.00;50.74;99075.72;4991032;28;20493;-54
2024/01/25 10:20:41;;;;;;;17.15;8.10;;;;;;;21.98;50.77;99087.31;4991176;28;20074;-56
2024/01/25 10:23:09;;;;;;;17.40;8.13;;;;;;;21.95;50.92;99075.09;4990957;28;20436;-55
2024/01/25 10:25:36;;;;;;;15.23;7.60;;;;;;;21.92;50.87;99083.19;4991145;28;20149;-54
2024/01/25 10:28:03;;;;;;;15.75;7.45;;;;;;;21.88;50.95;99064.91;4991073;28;20420;-54
2024/01/25 10:30:29;;;;;;;15.27;8.05;;;;;;;21.89;51.02;99079.88;4990945;28;20103;-54
2024/01/25 10:32:56;;;;;;;16.65;7.78;;;;;;;21.88;50.98;99083.47;4990804;28;20638;-54
2024/01/25 10:35:23;;;;;;;17.23;8.25;;;;;;;21.87;51.04;99077.31;4990939;28;20061;-54
2024/01/25 10:37:49;;;;;;;15.88;7.25;;;;;;;21.88;51.03;99062.25;4990577;28;20141;-54
2024/01/25 10:40:17;;;;;;;15.90;8.07;;;;;;;21.91;50.88;99078.00;4990966;28;20042;-54
2024/01/25 10:42:44;;;;;;;15.23;7.80;;;;;;;21.93;50.89;99071.66;4990702;28;20145;-55
2024/01/25 10:45:11;;;;;;;16.85;7.78;;;;;;;21.99;50.74;99086.41;4990896;28;20129;-55
2024/01/25 10:47:40;;;;;;;14.80;7.32;;;;;;;21.98;50.79;99080.25;4990630;28;20145;-55
2024/01/25 10:50:09;;;;;;;17.45;7.65;;;;;;;22.00;50.46;99061.56;4990898;28;20050;-55
2024/01/25 10:52:35;;;;;;;15.73;7.70;;;;;;;21.99;50.82;99071.31;4990936;28;20047;-55
2024/01/25 10:55:03;;;;;;;16.13;7.70;;;;;;;21.97;50.81;99075.00;4990985;28;20129;-55
2024/01/25 10:57:37;;;;;;;15.07;8.02;;;;;;;21.97;50.74;99065.25;4990646;28;20560;-55
2024/01/25 11:00:07;;;;;;;16.30;7.40;;;;;;;21.97;50.75;99067.91;4990879;28;20046;-55
2024/01/25 11:02:35;;;;;;;16.02;7.93;;;;;;;21.99;50.74;99049.25;4990643;28;20489;-55
2024/01/25 11:05:03;;;;;;;14.82;7.38;;;;;;;22.00;50.62;99073.06;4990759;28;20133;-55
2024/01/25 11:07:29;;;;;;;15.27;7.82;;;;;;;22.04;50.58;99063.09;4990404;28;20065;-55
2024/01/25 11:09:56;;;;;;;15.85;7.97;;;;;;;22.06;50.47;99058.56;4990979;28;20058;-55
2024/01/25 11:12:23;;;;;;;15.02;6.95;;;;;;;22.07;50.52;99064.75;4990561;28;20381;-55
2024/01/25 11:14:56;;;;;;;15.50;7.45;;;;;;;22.04;50.53;99057.78;4990688;28;20138;-55
2024/01/25 11:17:23;;;;;;;15.80;7.50;;;;;;;22.03;50.45;99064.06;4990605;28;20050;-55
2024/01/25 11:19:50;;;;;;;17.20;7.78;;;;;;;22.05;50.47;99063.97;4990378;28;20046;-55
2024/01/25 11:22:17;;;;;;;16.00;7.45;;;;;;;22.02;50.40;99067.63;4990451;28;20057;-55
2024/01/25 11:24:45;;;;;;;16.17;7.50;;;;;;;21.99;50.61;99066.03;4990301;28;20138;-56
2024/01/25 11:27:11;;;;;;;13.98;7.22;;;;;;;21.97;50.62;99054.63;4990359;28;20115;-55
2024/01/25 11:29:38;;;;;;;14.05;7.15;;;;;;;21.97;50.60;99059.09;4990157;28;20129;-55